createdAt,value
2022-10-18T00:02:15.738Z,18.90
2022-10-18T00:04:42.289Z,22.55
2022-10-18T00:07:08.808Z,20.30
2022-10-18T00:09:35.712Z,23.75
2022-10-18T00:12:02.520Z,21.48
2022-10-18T00:14:29.260Z,16.55
2022-10-18T00:16:55.855Z,20.80
2022-10-18T00:19:25.891Z,19.90
2022-10-18T00:21:55.233Z,20.60
2022-10-18T00:24:21.844Z,17.20
2022-10-18T00:26:48.483Z,18.98
2022-10-18T00:29:16.128Z,19.50
2022-10-18T00:31:44.262Z,14.90
2022-10-18T00:34:13.573Z,17.65
2022-10-18T00:36:40.523Z,27.58
2022-10-18T00:39:08.073Z,17.30
2022-10-18T00:41:38.171Z,21.25
2022-10-18T00:44:27.926Z,19.95
2022-10-18T00:47:06.052Z,15.05
2022-10-18T00:49:36.787Z,19.58
2022-10-18T00:52:27.943Z,20.58
2022-10-18T00:54:55.954Z,17.25
2022-10-18T00:57:23.493Z,19.83
2022-10-18T00:59:50.150Z,20.45
2022-10-18T01:02:18.514Z,23.83
2022-10-18T01:04:49.849Z,25.15
2022-10-18T01:07:25.731Z,19.52
2022-10-18T01:10:04.398Z,19.48
2022-10-18T01:12:49.299Z,17.58
2022-10-18T01:15:43.544Z,21.23
2022-10-18T01:18:27.657Z,19.60
2022-10-18T01:21:18.076Z,18.27
2022-10-18T01:24:06.425Z,20.40
2022-10-18T01:26:48.123Z,20.20
2022-10-18T01:29:42.897Z,18.17
2022-10-18T01:32:39.892Z,19.50
2022-10-18T01:35:11.316Z,14.32
2022-10-18T01:37:38.720Z,17.50
2022-10-18T01:40:06.738Z,23.80
2022-10-18T01:42:33.331Z,21.70
2022-10-18T01:45:01.657Z,22.85
2022-10-18T01:47:28.847Z,20.33
2022-10-18T01:50:00.378Z,17.42
2022-10-18T01:52:26.879Z,17.25
2022-10-18T01:54:54.158Z,19.05
2022-10-18T01:57:26.946Z,20.52
2022-10-18T02:00:24.483Z,21.50
2022-10-18T02:02:58.629Z,19.73
2022-10-18T02:05:43.815Z,23.13
2022-10-18T02:08:41.855Z,18.55
2022-10-18T02:11:17.601Z,22.23
2022-10-18T02:13:50.208Z,18.60
2022-10-18T02:16:20.339Z,16.17
2022-10-18T02:19:12.863Z,17.08
2022-10-18T02:21:41.058Z,16.85
2022-10-18T02:24:08.382Z,17.50
2022-10-18T02:26:35.260Z,17.70
2022-10-18T02:29:01.961Z,15.45
2022-10-18T02:31:32.011Z,21.38
2022-10-18T02:34:11.746Z,21.42
2022-10-18T02:36:41.947Z,15.40
2022-10-18T02:39:14.408Z,20.23
2022-10-18T02:41:41.527Z,15.70
2022-10-18T02:44:08.413Z,20.30
2022-10-18T02:46:35.228Z,16.95
2022-10-18T02:49:02.017Z,15.85
2022-10-18T02:51:28.649Z,17.58
2022-10-18T02:53:55.151Z,20.25
2022-10-18T02:56:21.935Z,22.20
2022-10-18T02:58:48.615Z,15.90
2022-10-18T03:01:15.264Z,23.70
2022-10-18T03:03:45.470Z,23.38
2022-10-18T03:06:12.680Z,23.70
2022-10-18T03:08:39.167Z,23.77
2022-10-18T03:11:05.826Z,16.20
2022-10-18T03:13:34.027Z,19.02
2022-10-18T03:16:01.013Z,19.65
2022-10-18T03:18:27.665Z,20.80
2022-10-18T03:20:54.199Z,25.77
2022-10-18T03:23:20.814Z,21.27
2022-10-18T03:25:47.414Z,28.27
2022-10-18T03:28:13.921Z,31.27
2022-10-18T03:30:40.389Z,30.55
2022-10-18T03:33:07.114Z,28.92
2022-10-18T03:35:33.570Z,22.05
2022-10-18T03:38:00.019Z,24.58
2022-10-18T03:40:26.638Z,20.98
2022-10-18T03:42:53.151Z,24.10
2022-10-18T03:45:19.608Z,25.92
2022-10-18T03:47:46.070Z,25.05
2022-10-18T03:50:12.524Z,23.20
2022-10-18T03:52:39.018Z,30.42
2022-10-18T03:55:05.900Z,24.83
2022-10-18T03:57:32.354Z,29.33
2022-10-18T03:59:58.979Z,29.45
2022-10-18T04:02:25.468Z,25.70
2022-10-18T04:04:52.423Z,24.00
2022-10-18T04:07:19.146Z,25.13
2022-10-18T04:09:45.655Z,25.75
2022-10-18T04:12:12.467Z,30.80
2022-10-18T04:14:38.985Z,25.27
2022-10-18T04:17:05.567Z,21.00
2022-10-18T04:19:32.071Z,24.55
2022-10-18T04:21:58.585Z,26.58
2022-10-18T04:24:25.036Z,26.48
2022-10-18T04:26:51.557Z,22.55
2022-10-18T04:29:18.143Z,26.88
2022-10-18T04:31:44.727Z,22.02
2022-10-18T04:34:11.267Z,19.83
2022-10-18T04:36:37.804Z,16.85
2022-10-18T04:39:04.273Z,26.60
2022-10-18T04:41:30.726Z,29.73
2022-10-18T04:43:57.232Z,26.33
2022-10-18T04:46:23.682Z,23.75
2022-10-18T04:48:50.236Z,28.05
2022-10-18T04:51:16.702Z,25.90
2022-10-18T04:53:43.234Z,27.33
2022-10-18T04:56:09.696Z,25.65
2022-10-18T04:58:36.170Z,23.70
2022-10-18T05:01:06.522Z,34.97
2022-10-18T05:03:33.047Z,35.70
2022-10-18T05:06:02.582Z,27.38
2022-10-18T05:08:30.051Z,30.05
2022-10-18T05:10:56.544Z,27.77
2022-10-18T05:13:23.174Z,28.92
2022-10-18T05:15:49.633Z,26.42
2022-10-18T05:18:16.277Z,36.28
2022-10-18T05:20:42.732Z,27.45
2022-10-18T05:23:12.131Z,26.70
2022-10-18T05:25:42.284Z,25.33
2022-10-18T05:28:10.793Z,20.42
2022-10-18T05:30:47.774Z,29.42
2022-10-18T05:33:14.237Z,26.67
2022-10-18T05:35:40.690Z,23.23
2022-10-18T05:38:07.169Z,22.90
2022-10-18T05:40:34.187Z,22.55
2022-10-18T05:43:00.633Z,27.60
2022-10-18T05:45:27.111Z,19.55
2022-10-18T05:47:54.434Z,22.05
2022-10-18T05:50:21.050Z,27.23
2022-10-18T05:52:47.639Z,24.63
2022-10-18T05:55:14.181Z,19.27
2022-10-18T05:57:40.655Z,23.73
2022-10-18T06:00:07.511Z,25.05
2022-10-18T06:02:34.271Z,14.95
2022-10-18T06:05:00.759Z,21.48
2022-10-18T06:07:27.218Z,23.25
2022-10-18T06:09:53.674Z,27.20
2022-10-18T06:12:20.203Z,25.23
2022-10-18T06:14:47.326Z,19.80
2022-10-18T06:17:13.871Z,14.30
2022-10-18T06:19:40.469Z,20.40
2022-10-18T06:22:08.062Z,23.75
2022-10-18T06:24:34.506Z,18.23
2022-10-18T06:27:01.008Z,19.33
2022-10-18T06:29:27.501Z,16.40
2022-10-18T06:31:53.979Z,21.88
2022-10-18T06:34:20.464Z,17.48
2022-10-18T06:36:47.068Z,20.77
2022-10-18T06:39:13.608Z,20.70
2022-10-18T06:41:40.055Z,18.83
2022-10-18T06:44:13.656Z,17.05
2022-10-18T06:49:12.178Z,24.58
2022-10-18T06:51:41.585Z,14.95
2022-10-18T06:54:17.649Z,19.13
2022-10-18T06:56:45.060Z,19.52
2022-10-18T06:59:11.528Z,15.52
2022-10-18T07:01:38.074Z,14.90
2022-10-18T07:04:04.684Z,15.55
2022-10-18T07:06:31.172Z,21.73
2022-10-18T07:08:57.739Z,14.82
2022-10-18T07:11:26.584Z,16.52
2022-10-18T07:13:54.458Z,17.40
2022-10-18T07:16:21.316Z,15.70
2022-10-18T07:18:50.297Z,16.08
2022-10-18T07:21:19.536Z,23.05
2022-10-18T07:23:46.347Z,16.30
2022-10-18T07:26:27.257Z,19.30
2022-10-18T07:28:56.038Z,16.83
2022-10-18T07:31:23.119Z,13.98
2022-10-18T07:33:49.652Z,19.38
2022-10-18T07:36:16.361Z,16.98
2022-10-18T07:38:43.006Z,23.15
2022-10-18T07:41:11.727Z,19.23
2022-10-18T07:43:41.542Z,15.75
2022-10-18T07:46:08.112Z,16.63
2022-10-18T07:48:34.725Z,9.35
2022-10-18T07:51:01.674Z,17.05
2022-10-18T07:53:28.701Z,18.80
2022-10-18T07:56:01.370Z,12.90
2022-10-18T07:58:31.557Z,18.52
2022-10-18T08:01:01.726Z,14.85
2022-10-18T08:03:28.187Z,13.40
2022-10-18T08:05:55.176Z,10.75
2022-10-18T08:08:22.687Z,17.85
2022-10-18T08:10:49.585Z,12.32
2022-10-18T08:13:16.916Z,13.95
2022-10-18T08:15:43.734Z,12.10
2022-10-18T08:18:10.365Z,14.52
2022-10-18T08:20:37.038Z,15.65
2022-10-18T08:23:04.682Z,11.10
2022-10-18T08:25:31.349Z,18.23
2022-10-18T08:27:57.975Z,12.80
2022-10-18T08:30:24.479Z,11.93
2022-10-18T08:32:51.115Z,13.10
2022-10-18T08:35:17.594Z,13.55
2022-10-18T08:37:45.362Z,13.68
2022-10-18T08:40:52.858Z,13.88
2022-10-18T08:43:26.787Z,13.45
2022-10-18T08:45:54.801Z,14.10
2022-10-18T08:48:30.943Z,12.48
2022-10-18T08:50:58.472Z,11.73
2022-10-18T08:53:35.088Z,14.45
2022-10-18T08:56:18.770Z,14.02
2022-10-18T08:58:45.408Z,12.57
2022-10-18T09:01:21.392Z,11.45
2022-10-18T09:04:07.592Z,12.82
2022-10-18T09:06:48.893Z,13.52
2022-10-18T09:09:26.924Z,14.88
2022-10-18T09:12:16.646Z,14.88
2022-10-18T09:14:56.856Z,11.95
2022-10-18T09:17:41.489Z,13.32
2022-10-18T09:20:27.666Z,11.73
2022-10-18T09:23:21.322Z,11.38
2022-10-18T09:25:49.955Z,11.50
2022-10-18T09:28:32.961Z,12.23
2022-10-18T09:31:18.614Z,10.43
2022-10-18T09:33:58.294Z,10.98
2022-10-18T09:36:27.118Z,9.77
2022-10-18T09:39:00.500Z,12.93
2022-10-18T09:44:36.851Z,15.32
2022-10-18T09:47:14.589Z,10.55
2022-10-18T09:49:46.139Z,11.77
2022-10-18T09:52:27.499Z,10.10
2022-10-18T09:55:04.384Z,12.93
2022-10-18T09:57:46.959Z,10.02
2022-10-18T10:00:51.422Z,9.43
2022-10-18T10:03:20.415Z,9.35
2022-10-18T10:05:51.231Z,15.77
2022-10-18T10:08:38.023Z,11.32
2022-10-18T10:12:01.678Z,12.80
2022-10-18T10:14:49.279Z,14.68
2022-10-18T10:17:30.307Z,7.47
2022-10-18T10:20:04.412Z,12.48
2022-10-18T10:22:48.588Z,9.63
2022-10-18T10:25:32.034Z,11.88
2022-10-18T10:28:09.623Z,11.60
2022-10-18T10:30:41.262Z,11.48
2022-10-18T10:33:36.684Z,14.13
2022-10-18T10:36:21.752Z,10.00
2022-10-18T10:39:12.872Z,10.10
2022-10-18T10:41:49.342Z,11.50
2022-10-18T10:44:25.115Z,9.32
2022-10-18T10:46:56.031Z,9.90
2022-10-18T10:49:40.374Z,6.90
2022-10-18T10:52:30.959Z,11.10
2022-10-18T10:55:34.883Z,9.30
2022-10-18T10:57:59.610Z,11.38
2022-10-18T11:00:47.579Z,7.35
2022-10-18T11:03:36.466Z,10.52
2022-10-18T11:06:17.171Z,8.32
2022-10-18T11:08:47.968Z,12.00
2022-10-18T11:11:32.028Z,10.48
2022-10-18T11:14:50.376Z,11.43
2022-10-18T11:17:57.611Z,8.15
2022-10-18T11:21:06.656Z,9.05
2022-10-18T11:23:40.717Z,6.65
2022-10-18T11:26:20.134Z,10.10
2022-10-18T11:29:19.943Z,8.77
2022-10-18T11:32:16.061Z,8.90
2022-10-18T11:35:49.208Z,8.98
2022-10-18T11:38:53.328Z,12.90
2022-10-18T11:41:39.097Z,7.40
2022-10-18T11:44:25.044Z,9.60
2022-10-18T11:47:32.810Z,8.35
2022-10-18T11:50:14.245Z,6.50
2022-10-18T11:53:11.625Z,9.60
2022-10-18T11:56:09.437Z,6.00
2022-10-18T11:58:53.372Z,9.88
2022-10-18T12:01:38.932Z,6.47
2022-10-18T12:04:08.324Z,7.60
2022-10-18T12:06:45.348Z,10.00
2022-10-18T12:09:35.335Z,6.38
2022-10-18T12:12:07.851Z,7.45
2022-10-18T12:15:02.264Z,4.47
2022-10-18T12:17:46.341Z,11.30
2022-10-18T12:20:35.813Z,10.70
2022-10-18T12:23:04.190Z,10.75
2022-10-18T12:25:34.233Z,6.88
2022-10-18T12:28:07.921Z,8.27
2022-10-18T12:33:29.283Z,8.50
2022-10-18T12:36:18.059Z,8.75
2022-10-18T12:38:48.100Z,9.20
2022-10-18T12:41:27.625Z,8.57
2022-10-18T12:43:59.275Z,6.60
2022-10-18T12:46:43.309Z,7.13
2022-10-18T12:49:11.884Z,5.88
2022-10-18T12:51:50.753Z,6.00
2022-10-18T12:54:20.598Z,7.65
2022-10-18T12:56:47.654Z,5.22
2022-10-18T12:59:14.569Z,8.10
2022-10-18T13:02:07.638Z,5.97
2022-10-18T13:04:35.027Z,6.97
2022-10-18T13:07:08.204Z,6.15
2022-10-18T13:09:44.447Z,8.50
2022-10-18T13:12:10.977Z,6.18
2022-10-18T13:15:24.874Z,5.57
2022-10-18T13:20:27.671Z,8.02
2022-10-18T13:26:24.503Z,5.63
2022-10-18T13:29:06.140Z,6.00
2022-10-18T13:31:49.290Z,6.50
2022-10-18T13:34:24.921Z,5.70
2022-10-18T13:37:21.497Z,4.43
2022-10-18T13:39:47.991Z,4.55
2022-10-18T13:42:14.356Z,4.30
2022-10-18T13:44:43.440Z,9.50
2022-10-18T13:47:33.574Z,5.47
2022-10-18T13:50:06.085Z,6.47
2022-10-18T13:52:59.198Z,3.53
2022-10-18T13:55:44.150Z,8.35
2022-10-18T13:58:31.804Z,9.43
2022-10-18T14:01:01.035Z,8.10
2022-10-18T14:04:04.423Z,7.68
2022-10-18T14:06:37.236Z,7.38
2022-10-18T14:09:25.712Z,8.68
2022-10-18T14:12:08.841Z,6.15
2022-10-18T14:15:07.869Z,8.48
2022-10-18T14:18:02.679Z,10.23
2022-10-18T14:20:55.199Z,7.32
2022-10-18T14:23:31.574Z,8.25
2022-10-18T14:26:20.680Z,11.70
2022-10-18T14:29:05.441Z,9.75
2022-10-18T14:31:32.751Z,9.50
2022-10-18T14:33:59.774Z,9.52
2022-10-18T14:36:30.172Z,10.13
2022-10-18T14:38:58.969Z,8.93
2022-10-18T14:41:30.077Z,8.45
2022-10-18T14:44:21.037Z,10.23
2022-10-18T14:47:13.134Z,10.55
2022-10-18T14:49:44.184Z,8.15
2022-10-18T14:52:14.092Z,7.65
2022-10-18T14:54:40.627Z,10.93
2022-10-18T14:57:07.356Z,8.32
2022-10-18T14:59:40.805Z,6.50
2022-10-18T15:02:14.377Z,9.05
2022-10-18T15:07:07.904Z,5.30
2022-10-18T15:09:35.651Z,11.18
2022-10-18T15:12:06.594Z,10.15
2022-10-18T15:14:34.063Z,9.13
2022-10-18T15:17:05.300Z,8.90
2022-10-18T15:19:39.174Z,10.38
2022-10-18T15:25:06.083Z,8.23
2022-10-18T15:27:36.467Z,11.98
2022-10-18T15:30:16.178Z,11.45
2022-10-18T15:32:57.315Z,12.20
2022-10-18T15:35:34.693Z,11.43
2022-10-18T15:38:13.929Z,6.35
2022-10-18T15:40:41.084Z,6.60
2022-10-18T15:43:22.947Z,5.60
2022-10-18T15:45:51.234Z,5.13
2022-10-18T15:48:24.881Z,7.22
2022-10-18T15:53:22.600Z,11.27
2022-10-18T15:56:00.059Z,7.47
2022-10-18T15:58:45.247Z,8.85
2022-10-18T16:01:21.637Z,7.35
2022-10-18T16:03:48.597Z,6.38
2022-10-18T16:06:18.113Z,6.40
2022-10-18T16:08:49.967Z,4.95
2022-10-18T16:11:24.995Z,5.88
2022-10-18T16:13:57.797Z,5.13
2022-10-18T16:16:28.541Z,8.38
2022-10-18T16:18:56.128Z,7.35
2022-10-18T16:21:29.648Z,7.70
2022-10-18T16:23:56.946Z,3.60
2022-10-18T16:26:24.596Z,6.10
2022-10-18T16:28:51.434Z,4.85
2022-10-18T16:31:21.650Z,5.95
2022-10-18T16:33:48.944Z,5.57
2022-10-18T16:36:20.506Z,4.93
2022-10-18T16:38:47.965Z,5.05
2022-10-18T16:41:15.824Z,4.10
2022-10-18T16:43:46.927Z,3.75
2022-10-18T16:46:17.303Z,2.80
2022-10-18T16:48:45.896Z,4.22
2022-10-18T16:51:12.449Z,5.15
2022-10-18T16:53:39.054Z,6.03
2022-10-18T16:56:06.979Z,3.67
2022-10-18T16:58:33.767Z,5.15
2022-10-18T17:01:01.899Z,5.68
2022-10-18T17:03:30.591Z,4.00
2022-10-18T17:05:57.175Z,3.25
2022-10-18T17:08:26.288Z,4.80
2022-10-18T17:10:55.617Z,4.38
2022-10-18T17:13:23.216Z,5.78
2022-10-18T17:15:50.721Z,4.55
2022-10-18T17:18:22.903Z,4.68
2022-10-18T17:20:50.004Z,2.55
2022-10-18T17:23:16.580Z,4.03
2022-10-18T17:25:57.410Z,6.38
2022-10-18T17:28:31.033Z,1.92
2022-10-18T17:30:57.657Z,5.28
2022-10-18T17:33:24.208Z,5.80
2022-10-18T17:35:50.764Z,4.28
2022-10-18T17:38:17.367Z,5.50
2022-10-18T17:40:44.106Z,4.78
2022-10-18T17:43:13.230Z,4.45
2022-10-18T17:45:55.762Z,5.25
2022-10-18T17:48:22.745Z,5.18
2022-10-18T17:50:49.344Z,5.88
2022-10-18T17:53:18.301Z,3.75
2022-10-18T17:55:44.861Z,5.20
2022-10-18T17:58:11.405Z,3.60
2022-10-18T18:00:38.940Z,7.82
2022-10-18T18:03:05.625Z,6.07
2022-10-18T18:05:34.319Z,2.85
2022-10-18T18:08:03.834Z,5.22
2022-10-18T18:10:33.328Z,3.90
2022-10-18T18:13:00.559Z,4.97
2022-10-18T18:15:28.357Z,2.78
2022-10-18T18:17:58.414Z,4.35
2022-10-18T18:20:26.052Z,7.53
2022-10-18T18:22:52.877Z,5.25
2022-10-18T18:25:19.364Z,5.22
2022-10-18T18:27:46.964Z,5.45
2022-10-18T18:30:15.708Z,6.20
2022-10-18T18:32:42.536Z,4.25
2022-10-18T18:35:10.843Z,6.60
2022-10-18T18:37:38.514Z,6.10
2022-10-18T18:40:05.629Z,4.32
2022-10-18T18:42:32.558Z,5.60
2022-10-18T18:44:59.403Z,4.95
2022-10-18T18:47:27.399Z,5.22
2022-10-18T18:49:53.900Z,7.30
2022-10-18T18:52:20.373Z,5.05
2022-10-18T18:54:47.913Z,5.03
2022-10-18T18:57:14.491Z,5.07
2022-10-18T18:59:41.414Z,4.45
2022-10-18T19:02:10.131Z,7.63
2022-10-18T19:04:37.263Z,10.00
2022-10-18T19:07:04.456Z,8.18
2022-10-18T19:09:31.789Z,4.80
2022-10-18T19:11:59.823Z,7.07
2022-10-18T19:14:30.582Z,7.47
2022-10-18T19:16:58.991Z,7.18
2022-10-18T19:19:28.092Z,5.10
2022-10-18T19:22:00.583Z,6.00
2022-10-18T19:24:30.194Z,6.45
2022-10-18T19:26:59.218Z,8.82
2022-10-18T19:29:30.379Z,5.93
2022-10-18T19:31:59.414Z,6.07
2022-10-18T19:34:27.565Z,4.88
2022-10-18T19:36:55.522Z,6.57
2022-10-18T19:39:27.196Z,8.48
2022-10-18T19:41:57.392Z,5.45
2022-10-18T19:44:27.473Z,5.93
2022-10-18T19:46:55.062Z,7.63
2022-10-18T19:49:22.040Z,4.05
2022-10-18T19:51:50.586Z,5.72
2022-10-18T19:54:17.247Z,3.40
2022-10-18T19:56:52.842Z,6.60
2022-10-18T19:59:25.570Z,5.57
2022-10-18T20:01:53.567Z,4.20
2022-10-18T20:04:20.074Z,4.65
2022-10-18T20:06:46.574Z,7.53
2022-10-18T20:09:17.692Z,5.88
2022-10-18T20:11:47.477Z,7.32
2022-10-18T20:14:14.350Z,3.92
2022-10-18T20:16:41.301Z,6.85
2022-10-18T20:19:08.278Z,4.20
2022-10-18T20:21:35.570Z,6.93
2022-10-18T20:24:03.101Z,4.72
2022-10-18T20:26:29.699Z,9.15
2022-10-18T20:28:57.470Z,6.30
2022-10-18T20:31:29.143Z,6.60
2022-10-18T20:34:00.400Z,7.32
2022-10-18T20:36:28.472Z,5.40
2022-10-18T20:38:55.153Z,7.20
2022-10-18T20:41:27.498Z,5.70
2022-10-18T20:43:58.606Z,5.75
2022-10-18T20:46:26.688Z,5.78
2022-10-18T20:48:54.071Z,7.70
2022-10-18T20:51:21.414Z,3.55
2022-10-18T20:53:48.222Z,4.43
2022-10-18T20:56:17.893Z,5.18
2022-10-18T20:58:45.182Z,8.27
2022-10-18T21:01:14.617Z,4.10
2022-10-18T21:03:43.859Z,5.38
2022-10-18T21:06:15.871Z,4.38
2022-10-18T21:08:43.381Z,4.00
2022-10-18T21:11:10.450Z,6.60
2022-10-18T21:13:37.198Z,3.50
2022-10-18T21:16:06.323Z,3.83
2022-10-18T21:18:35.402Z,4.93
2022-10-18T21:21:23.335Z,7.25
2022-10-18T21:23:50.594Z,7.82
2022-10-18T21:26:24.564Z,6.15
2022-10-18T21:28:52.360Z,5.82
2022-10-18T21:31:24.478Z,6.35
2022-10-18T21:33:55.995Z,7.70
2022-10-18T21:36:24.367Z,4.75
2022-10-18T21:38:51.458Z,5.10
2022-10-18T21:41:19.187Z,5.18
2022-10-18T21:43:47.804Z,4.47
2022-10-18T21:46:15.914Z,4.65
2022-10-18T21:48:53.601Z,8.65
2022-10-18T21:51:23.019Z,4.78
2022-10-18T21:53:51.540Z,5.75
2022-10-18T21:56:28.901Z,4.03
2022-10-18T21:58:56.599Z,6.13
2022-10-18T22:01:25.821Z,7.03
2022-10-18T22:03:53.973Z,6.88
2022-10-18T22:06:21.152Z,7.93
2022-10-18T22:08:49.654Z,6.93
2022-10-18T22:11:17.863Z,5.18
2022-10-18T22:13:44.848Z,5.95
2022-10-18T22:16:14.467Z,6.80
2022-10-18T22:18:41.543Z,6.07
2022-10-18T22:21:10.295Z,7.68
2022-10-18T22:23:42.364Z,7.72
2022-10-18T22:26:14.613Z,12.85
2022-10-18T22:28:42.022Z,10.27
2022-10-18T22:31:23.704Z,8.73
2022-10-18T22:33:59.378Z,9.73
2022-10-18T22:36:26.890Z,10.45
2022-10-18T22:38:53.822Z,8.50
2022-10-18T22:41:20.798Z,8.10
2022-10-18T22:43:48.279Z,7.63
2022-10-18T22:46:14.980Z,9.73
2022-10-18T22:48:42.089Z,8.82
2022-10-18T22:51:10.511Z,8.75
2022-10-18T22:53:39.279Z,11.27
2022-10-18T22:56:06.979Z,9.25
2022-10-18T22:58:33.418Z,8.05
2022-10-18T23:01:01.476Z,12.63
2022-10-18T23:03:27.965Z,6.40
2022-10-18T23:05:54.475Z,10.48
2022-10-18T23:08:20.933Z,6.75
2022-10-18T23:10:47.708Z,13.15
2022-10-18T23:13:15.500Z,8.52
2022-10-18T23:15:42.525Z,8.75
2022-10-18T23:18:09.009Z,12.10
2022-10-18T23:20:35.839Z,8.63
2022-10-18T23:23:02.392Z,10.57
2022-10-18T23:25:29.079Z,9.23
2022-10-18T23:27:57.622Z,7.90
2022-10-18T23:30:24.628Z,10.68
2022-10-18T23:32:53.930Z,8.45
2022-10-18T23:35:20.991Z,11.48
2022-10-18T23:37:47.641Z,5.88
2022-10-18T23:40:15.373Z,7.75
2022-10-18T23:42:44.157Z,10.70
2022-10-18T23:45:11.194Z,10.60
2022-10-18T23:48:15.758Z,10.35
2022-10-18T23:50:44.573Z,9.10
2022-10-18T23:53:11.474Z,10.98
2022-10-18T23:55:38.089Z,10.88
2022-10-18T23:58:05.625Z,12.60
